Location Norrisville, MD, US

ob CW6888 240500Z AUTO 17000KT CLR 10/07 A3011 RMK SLPNO 

2017.04.24 0500 UTC
Wind from the S (174 degrees) at Calm MPH ( KT) gusting to 0.0 MPH (0 KT)
Visibility    Mile(s)
Sky Conditions  clear
Temperature 49.40 F (10 C)
Dew Point 43.82 F (7 C)
Relative Humidity 81%
Pressure   30.11 in. Hg (1020 hPa)
Rain  0.00 in.
Daily Rain  in.

Station Name  Sola Virtus Observatory
Longitude, Latitude  -76.5447, 39.7025
Elevation 738
Station URL http://sola-virtus-observatory.org
Software Type VWS V15.00